Meath Environmental Platform

Observations for Trim Market St

Time AQI Temp °C Hum % Pres Pa CO μg/m³ H₂S μg/m³ NO μg/m³ NO₂ μg/m³ O₃ μg/m³ SO₂ μg/m³ PM1 μg/m³ PM2.5 μg/m³ PM10 μg/m³
Saturday 22 August 2026
21:53 2 17.6 57 56,832 0.29 0 1.68 33.6 41.13 0 2.14 6.21 8.23
21:51 2 17.7 56 56,807 0.22 0 1.27 20.33 59.86 0 2.14 6.22 8.94
21:50 2 17.7 56 56,776 0.22 0 1.27 22.47 54.81 0 1.43 5.72 8.94
21:49 2 17.7 56 56,766 0.25 0 1.27 32.17 38.77 0 2.14 4.71 6.11
21:48 2 17.7 56 56,759 0.24 0 1.31 33.88 42.9 0 1.43 5.72 8.24
21:47 2 17.7 56 56,750 0.24 0 1.32 28.36 48.26 0 2.85 6.73 11.07
21:46 2 17.7 56 56,764 0.25 0 1.33 31.14 41.09 0 2.85 6.23 8.24
21:45 2 17.7 56 56,781 0.29 0 1.43 38.29 34.98 0 2.14 4.72 7.53
21:44 2 17.8 56 56,800 0.23 0 2.73 30.73 41.19 0 2.14 5.22 8.95
21:43 2 17.7 56 56,833 0.27 0 3.4 30.12 47.64 0 2.85 5.22 7.53
21:42 2 17.7 56 56,852 0.37 0 3.67 31.85 40.72 0 2.85 6.23 8.24
21:41 2 17.8 56 56,876 0.68 0.94 4.12 54.82 14.97 0 2.85 5.73 7.53
21:40 2 17.8 56 56,869 0.78 2.49 6.8 61.55 10.33 0 4.28 7.25 11.08
21:39 2 17.8 56 56,840 0.97 3.77 4.01 63.94 9.07 0 2.85 5.74 7.53
21:38 2 17.8 56 56,805 0.84 1.41 3.83 61.99 10.11 0 2.14 5.24 6.82
21:33 2 17.9 55 56,561 0.3 0 1.41 60.43 14.49 0 2.14 5.27 7.53
21:32 2 17.9 55 56,459 0.15 0 1.34 48.21 33.58 0 2.14 5.79 8.24
21:31 2 17.9 55 56,370 0.18 0 1.38 37.97 44.02 0 1.43 5.28 8.24
21:29 2 17.9 55 56,190 0.18 0 3.21 41.95 40.15 0 2.14 5.81 8.25
21:21 2 18.1 54 56,029 0.82 0 1.34 25.95 51.27 0 2.14 4.81 6.09